createdAt,value
2022-12-17T00:22:02.222Z,-2.95
2022-12-17T00:24:47.812Z,-4.70
2022-12-17T00:27:33.858Z,-2.59
2022-12-17T00:30:21.003Z,-2.71
2022-12-17T00:33:09.875Z,-5.02
2022-12-17T00:35:55.571Z,-2.58
2022-12-17T00:38:43.261Z,-3.38
2022-12-17T00:41:29.324Z,-2.71
2022-12-17T00:44:15.282Z,-3.11
2022-12-17T00:47:02.703Z,-4.36
2022-12-17T00:49:49.275Z,-4.79
2022-12-17T00:52:35.847Z,-2.77
2022-12-17T00:55:31.182Z,-5.13
2022-12-17T01:38:08.355Z,-4.97
2022-12-17T01:40:54.794Z,-2.33
2022-12-17T01:43:52.151Z,-5.47
2022-12-17T01:46:39.246Z,-2.53
2022-12-17T01:49:27.855Z,-2.53
2022-12-17T01:52:15.117Z,-4.16
2022-12-17T01:55:04.504Z,-4.74
2022-12-17T01:57:50.328Z,-4.87
2022-12-17T02:00:37.262Z,-5.20
2022-12-17T02:03:23.856Z,-5.71
2022-12-17T02:06:21.312Z,-3.54
2022-12-17T02:09:21.830Z,-6.00
2022-12-17T02:12:14.812Z,-5.44
2022-12-17T02:15:06.271Z,-5.18
2022-12-17T02:17:59.083Z,-4.61
2022-12-17T02:20:50.683Z,-5.82
2022-12-17T02:23:48.413Z,-3.42
2022-12-17T02:26:41.390Z,-5.14
2022-12-17T02:29:25.614Z,-3.49
2022-12-17T02:32:12.863Z,-5.60
2022-12-17T02:35:03.600Z,-5.89
2022-12-17T02:37:50.062Z,-5.45
2022-12-17T02:40:37.538Z,-3.84
2022-12-17T02:43:23.825Z,-2.96
2022-12-17T02:46:11.429Z,-2.96
2022-12-17T02:48:56.742Z,-3.00
2022-12-17T02:51:43.425Z,-3.00
2022-12-17T02:54:28.721Z,-2.98
2022-12-17T02:57:13.837Z,-3.46
2022-12-17T02:59:59.161Z,-2.92
2022-12-17T03:02:54.368Z,-3.03
2022-12-17T04:01:32.948Z,-3.57
2022-12-17T05:14:06.323Z,-3.28
2022-12-17T05:16:52.966Z,-3.23
2022-12-17T05:19:38.128Z,-3.24
2022-12-17T05:22:23.358Z,-3.28
2022-12-17T05:25:08.458Z,-3.30
2022-12-17T05:27:53.996Z,-3.34
2022-12-17T05:30:39.333Z,-3.41
2022-12-17T05:33:26.862Z,-3.25
2022-12-17T05:36:12.327Z,-3.26
2022-12-17T05:39:12.314Z,-3.29
2022-12-17T05:42:02.724Z,-3.26
2022-12-17T05:44:53.268Z,-3.25
2022-12-17T05:47:38.834Z,-3.26
2022-12-17T05:50:26.034Z,-3.28
2022-12-17T05:53:11.412Z,-3.28
2022-12-17T05:55:56.589Z,-3.29
2022-12-17T05:58:41.739Z,-3.27
2022-12-17T06:01:27.345Z,-3.34
2022-12-17T06:04:12.925Z,-3.21
2022-12-17T06:06:59.349Z,-3.16
2022-12-17T06:09:45.088Z,-3.18
2022-12-17T06:12:30.221Z,-3.24
2022-12-17T06:15:15.365Z,-3.30
2022-12-17T06:18:00.742Z,-3.37
2022-12-17T06:20:54.230Z,-3.41
2022-12-17T06:23:40.912Z,-3.50
2022-12-17T06:26:26.176Z,-3.60
2022-12-17T06:29:11.400Z,-3.62
2022-12-17T06:31:56.641Z,-3.69
2022-12-17T06:34:42.549Z,-3.74
2022-12-17T06:37:27.718Z,-3.70
2022-12-17T06:40:14.291Z,-3.71
2022-12-17T06:42:59.342Z,-3.56
2022-12-17T06:45:44.579Z,-3.52
2022-12-17T06:48:29.763Z,-3.49
2022-12-17T06:51:15.468Z,-3.52
2022-12-17T06:54:01.299Z,-3.69
2022-12-17T06:56:47.893Z,-3.50
2022-12-17T06:59:33.005Z,-3.50
2022-12-17T07:02:18.365Z,-3.72
2022-12-17T07:05:03.813Z,-3.65
2022-12-17T07:07:49.069Z,-3.60
2022-12-17T07:10:34.589Z,-3.58
2022-12-17T07:13:24.927Z,-3.62
2022-12-17T07:16:10.208Z,-3.61
2022-12-17T07:18:56.165Z,-3.61
2022-12-17T07:21:41.293Z,-3.69
2022-12-17T07:24:26.620Z,-3.75
2022-12-17T07:27:11.908Z,-3.77
2022-12-17T07:29:58.420Z,-3.86
2022-12-17T07:32:43.790Z,-3.88
2022-12-17T07:35:29.068Z,-3.92
2022-12-17T07:38:17.854Z,-3.97
2022-12-17T07:41:03.364Z,-4.17
2022-12-17T07:43:52.982Z,-3.94
2022-12-17T07:46:40.278Z,-4.05
2022-12-17T07:49:26.151Z,-4.01
2022-12-17T07:52:12.138Z,-4.09
2022-12-17T07:54:57.473Z,-4.15
2022-12-17T07:57:43.796Z,-4.14
2022-12-17T08:00:30.800Z,-4.11
2022-12-17T08:03:18.338Z,-4.09
2022-12-17T08:06:15.511Z,-4.01
2022-12-17T08:09:12.489Z,-3.95
2022-12-17T08:11:58.173Z,-3.86
2022-12-17T08:14:43.473Z,-3.74
2022-12-17T08:17:28.688Z,-3.64
2022-12-17T08:20:15.341Z,-3.60
2022-12-17T08:23:00.477Z,-3.58
2022-12-17T08:25:45.648Z,-3.58
2022-12-17T08:31:36.605Z,-3.58
2022-12-17T08:34:21.840Z,-3.53
2022-12-17T08:37:08.385Z,-3.48
2022-12-17T08:39:53.493Z,-3.46
2022-12-17T08:42:38.574Z,-3.60
2022-12-17T08:45:24.651Z,-3.47
2022-12-17T08:48:10.232Z,-3.39
2022-12-17T08:50:55.652Z,-3.28
2022-12-17T08:53:42.601Z,-3.14
2022-12-17T08:56:27.982Z,-2.97
2022-12-17T08:59:13.185Z,-2.80
2022-12-17T09:01:57.622Z,-2.76
2022-12-17T09:04:42.972Z,-2.67
2022-12-17T09:07:28.180Z,-2.50
2022-12-17T09:10:14.694Z,-2.43
2022-12-17T09:13:04.363Z,-2.40
2022-12-17T09:15:51.721Z,-2.29
2022-12-17T09:18:37.881Z,-2.18
2022-12-17T09:21:24.221Z,-1.98
2022-12-17T09:24:09.448Z,-1.77
2022-12-17T09:26:56.417Z,-2.01
2022-12-17T09:29:41.819Z,-1.74
2022-12-17T09:32:27.237Z,-1.45
2022-12-17T09:35:12.483Z,-1.08
2022-12-17T09:38:09.097Z,-1.00
2022-12-17T09:40:54.460Z,-1.22
2022-12-17T09:43:49.865Z,-1.30
2022-12-17T09:46:41.202Z,-1.44
2022-12-17T09:49:35.089Z,-1.21
2022-12-17T09:52:22.760Z,-1.05
2022-12-17T09:55:10.493Z,-1.08
2022-12-17T09:58:10.805Z,-1.03
2022-12-17T10:01:09.073Z,-1.26
2022-12-17T10:03:56.192Z,-1.37
2022-12-17T10:06:45.716Z,-1.13
2022-12-17T10:09:35.548Z,-0.81
2022-12-17T10:12:31.008Z,-0.50
2022-12-17T10:15:16.213Z,-0.32
2022-12-17T10:18:03.196Z,-0.49
2022-12-17T10:20:54.984Z,-0.39
2022-12-17T10:23:45.222Z,-0.54
2022-12-17T10:26:43.721Z,-0.70
2022-12-17T10:29:47.413Z,-0.78
2022-12-17T10:32:38.810Z,-0.92
2022-12-17T10:35:32.180Z,-0.67
2022-12-17T10:38:18.921Z,-0.20
2022-12-17T10:41:04.079Z,0.30
2022-12-17T10:43:51.678Z,1.05
2022-12-17T10:46:44.966Z,1.70
2022-12-17T10:49:33.250Z,2.02
2022-12-17T10:52:23.053Z,3.66
2022-12-17T10:55:17.603Z,4.77
2022-12-17T10:58:03.842Z,5.60
2022-12-17T11:00:51.966Z,5.83
2022-12-17T11:03:51.020Z,5.77
2022-12-17T11:06:43.392Z,5.34
2022-12-17T11:09:45.134Z,4.42
2022-12-17T11:12:32.271Z,3.26
2022-12-17T11:15:26.046Z,3.02
2022-12-17T11:18:12.046Z,2.66
2022-12-17T11:21:08.949Z,2.68
2022-12-17T11:23:58.738Z,3.73
2022-12-17T11:26:49.222Z,4.82
2022-12-17T11:29:34.412Z,4.72
2022-12-17T11:32:51.295Z,4.03
2022-12-17T11:35:42.186Z,3.65
2022-12-17T11:38:36.189Z,3.52
2022-12-17T11:41:32.240Z,3.33
2022-12-17T11:44:26.663Z,2.82
2022-12-17T11:47:23.036Z,2.44
2022-12-17T11:50:17.736Z,2.57
2022-12-17T11:53:08.175Z,3.26
2022-12-17T11:56:00.838Z,3.28
2022-12-17T11:58:52.979Z,3.00
2022-12-17T12:01:49.760Z,3.40
2022-12-17T12:04:49.106Z,3.70
2022-12-17T12:07:43.760Z,4.01
2022-12-17T12:10:35.235Z,5.13
2022-12-17T12:13:33.617Z,5.97
2022-12-17T12:16:25.623Z,5.63
2022-12-17T12:19:24.573Z,5.35
2022-12-17T12:22:17.530Z,4.99
2022-12-17T12:25:33.614Z,4.07
2022-12-17T12:28:28.610Z,3.18
2022-12-17T12:31:21.974Z,2.49
2022-12-17T12:34:12.738Z,1.95
2022-12-17T12:37:01.015Z,1.46
2022-12-17T12:39:52.259Z,1.39
2022-12-17T12:42:44.805Z,1.43
2022-12-17T12:45:47.887Z,1.53
2022-12-17T12:48:44.006Z,1.48
2022-12-17T12:51:34.614Z,1.44
2022-12-17T12:54:40.289Z,1.31
2022-12-17T12:57:47.836Z,1.70
2022-12-17T13:00:49.859Z,1.92
2022-12-17T13:03:47.813Z,2.16
2022-12-17T13:06:41.580Z,1.67
2022-12-17T13:09:22.396Z,1.18
2022-12-17T13:11:54.613Z,1.06
2022-12-17T13:14:25.260Z,0.98
2022-12-17T13:16:55.899Z,0.72
2022-12-17T13:19:36.819Z,0.43
2022-12-17T13:22:27.719Z,-0.07
2022-12-17T13:24:58.017Z,-0.46
2022-12-17T13:27:31.044Z,-1.14
2022-12-17T13:30:00.338Z,-0.81
2022-12-17T13:32:33.202Z,-0.89
2022-12-17T13:35:12.292Z,-1.00
2022-12-17T13:37:53.496Z,-1.07
2022-12-17T13:40:35.341Z,-1.02
2022-12-17T13:43:03.913Z,-1.16
2022-12-17T13:45:39.014Z,-1.31
2022-12-17T13:48:07.221Z,-1.88
2022-12-17T13:50:36.198Z,-1.68
2022-12-17T13:53:13.015Z,-1.70
2022-12-17T13:55:41.565Z,-1.91
2022-12-17T13:58:22.352Z,-2.36
2022-12-17T14:00:50.184Z,-1.95
2022-12-17T14:03:37.141Z,-2.00
2022-12-17T14:06:12.532Z,-2.10
2022-12-17T14:08:42.756Z,-2.80
2022-12-17T14:11:32.962Z,-2.32
2022-12-17T14:14:02.447Z,-2.23
2022-12-17T14:16:30.693Z,-2.32
2022-12-17T14:19:00.140Z,-2.45
2022-12-17T14:21:29.604Z,-2.53
2022-12-17T14:23:59.073Z,-2.60
2022-12-17T14:26:26.810Z,-2.65
2022-12-17T14:28:56.152Z,-2.70
2022-12-17T14:31:28.816Z,-2.75
2022-12-17T14:34:07.385Z,-2.81
2022-12-17T14:36:37.309Z,-2.87
2022-12-17T14:39:16.290Z,-2.94
2022-12-17T14:42:01.674Z,-3.03
2022-12-17T14:44:31.101Z,-3.07
2022-12-17T14:47:10.194Z,-3.54
2022-12-17T14:49:41.163Z,-3.31
2022-12-17T14:52:14.465Z,-3.22
2022-12-17T14:54:47.406Z,-3.30
2022-12-17T14:57:24.390Z,-3.45
2022-12-17T14:59:52.948Z,-3.43
2022-12-17T15:02:26.198Z,-3.50
2022-12-17T15:04:58.090Z,-3.60
2022-12-17T15:07:28.302Z,-3.71
2022-12-17T15:09:57.821Z,-3.82
2022-12-17T15:12:26.499Z,-3.89
2022-12-17T15:14:54.170Z,-3.98
2022-12-17T15:17:21.992Z,-4.04
2022-12-17T15:19:55.803Z,-4.14
2022-12-17T15:22:24.245Z,-4.24
2022-12-17T15:24:52.315Z,-4.31
2022-12-17T15:27:21.378Z,-4.38
2022-12-17T15:29:49.137Z,-4.47
2022-12-17T15:32:19.829Z,-4.54
2022-12-17T15:34:47.910Z,-4.64
2022-12-17T15:37:19.827Z,-4.74
2022-12-17T15:39:51.020Z,-4.80
2022-12-17T15:42:36.760Z,-4.86
2022-12-17T15:45:08.381Z,-4.95
2022-12-17T15:47:36.127Z,-5.04
2022-12-17T15:50:03.947Z,-5.36
2022-12-17T15:52:32.642Z,-5.17
2022-12-17T15:55:00.529Z,-5.20
2022-12-17T15:57:28.276Z,-5.24
2022-12-17T15:59:56.009Z,-5.27
2022-12-17T16:02:25.503Z,-5.31
2022-12-17T16:04:53.308Z,-5.36
2022-12-17T16:07:21.117Z,-5.67
2022-12-17T16:09:48.852Z,-5.42
2022-12-17T16:12:16.575Z,-5.61
2022-12-17T16:14:44.704Z,-5.46
2022-12-17T16:17:12.543Z,-5.49
2022-12-17T16:19:41.598Z,-5.51
2022-12-17T16:22:09.508Z,-5.54
2022-12-17T16:24:37.223Z,-5.56
2022-12-17T16:27:05.300Z,-5.59
2022-12-17T16:29:33.046Z,-5.62
2022-12-17T16:32:01.390Z,-5.86
2022-12-17T16:34:29.089Z,-6.41
2022-12-17T16:36:58.777Z,-5.69
2022-12-17T16:39:26.583Z,-5.71
2022-12-17T16:41:54.441Z,-6.08
2022-12-17T16:44:22.985Z,-5.74
2022-12-17T16:46:52.333Z,-5.78
2022-12-17T16:49:22.364Z,-5.83
2022-12-17T16:51:51.714Z,-5.86
2022-12-17T16:54:22.628Z,-5.87
2022-12-17T16:56:50.869Z,-5.95
2022-12-17T16:59:19.003Z,-5.89
2022-12-17T17:01:50.125Z,-5.93
2022-12-17T17:04:19.710Z,-6.15
2022-12-17T17:06:49.739Z,-6.00
2022-12-17T17:09:18.106Z,-6.05
2022-12-17T17:11:51.397Z,-6.10
2022-12-17T17:14:19.642Z,-6.15
2022-12-17T17:16:47.443Z,-6.21
2022-12-17T17:19:15.197Z,-6.37
2022-12-17T17:21:48.605Z,-6.28
2022-12-17T17:24:21.592Z,-6.29
2022-12-17T17:26:52.900Z,-6.31
2022-12-17T17:29:20.896Z,-6.48
2022-12-17T17:34:36.712Z,-6.40
2022-12-17T17:37:04.948Z,-6.41
2022-12-17T17:39:34.049Z,-6.41
2022-12-17T17:42:03.343Z,-7.06
2022-12-17T17:44:31.198Z,-6.44
2022-12-17T17:46:59.025Z,-6.46
2022-12-17T17:49:27.088Z,-6.48
2022-12-17T17:52:12.025Z,-6.50
2022-12-17T17:54:40.727Z,-6.95
2022-12-17T17:57:10.718Z,-6.70
2022-12-17T17:59:39.357Z,-6.67
2022-12-17T18:02:08.799Z,-6.60
2022-12-17T18:04:37.037Z,-6.63
2022-12-17T18:09:53.067Z,-6.72
2022-12-17T18:12:41.455Z,-7.06
2022-12-17T18:15:14.901Z,-6.82
2022-12-17T18:17:44.784Z,-7.93
2022-12-17T18:20:12.901Z,-7.45
2022-12-17T18:22:41.141Z,-7.09
2022-12-17T18:25:09.210Z,-6.89
2022-12-17T18:27:38.366Z,-6.92
2022-12-17T18:30:07.067Z,-6.95
2022-12-17T18:32:34.846Z,-7.00
2022-12-17T18:35:02.609Z,-7.04
2022-12-17T18:37:31.069Z,-7.09
2022-12-17T18:39:58.982Z,-7.34
2022-12-17T18:42:44.309Z,-7.11
2022-12-17T18:45:13.436Z,-7.15
2022-12-17T18:47:42.417Z,-8.98
2022-12-17T18:50:11.071Z,-7.22
2022-12-17T18:52:39.406Z,-7.25
2022-12-17T18:55:11.101Z,-7.42
2022-12-17T18:57:38.876Z,-7.32
2022-12-17T19:00:08.218Z,-7.55
2022-12-17T19:02:37.537Z,-7.44
2022-12-17T19:05:05.761Z,-7.46
2022-12-17T19:07:33.407Z,-7.51
2022-12-17T19:10:01.201Z,-7.72
2022-12-17T19:12:29.097Z,-7.64
2022-12-17T19:14:56.855Z,-7.68
2022-12-17T19:17:26.302Z,-7.70
2022-12-17T19:19:55.339Z,-7.87
2022-12-17T19:22:23.046Z,-7.92
2022-12-17T19:24:50.869Z,-8.18
2022-12-17T19:27:18.601Z,-7.80
2022-12-17T19:29:49.381Z,-7.84
2022-12-17T19:32:17.551Z,-7.90
2022-12-17T19:34:45.327Z,-7.88
2022-12-17T19:37:14.779Z,-8.38
2022-12-17T19:39:42.563Z,-7.89
2022-12-17T19:42:24.272Z,-8.31
2022-12-17T19:44:52.508Z,-8.16
2022-12-17T19:47:20.595Z,-7.92
2022-12-17T19:49:48.494Z,-7.97
2022-12-17T19:52:17.559Z,-8.30
2022-12-17T19:54:45.426Z,-8.30
2022-12-17T19:57:13.113Z,-8.05
2022-12-17T19:59:40.823Z,-8.10
2022-12-17T20:02:10.916Z,-8.09
2022-12-17T20:04:38.995Z,-8.16
2022-12-17T20:07:06.794Z,-8.64
2022-12-17T20:09:35.953Z,-8.14
2022-12-17T20:12:04.230Z,-8.13
2022-12-17T20:14:34.203Z,-8.13
2022-12-17T20:17:02.490Z,-8.29
2022-12-17T20:19:32.255Z,-8.66
2022-12-17T20:22:01.109Z,-8.29
2022-12-17T20:24:31.799Z,-8.36
2022-12-17T20:27:02.002Z,-8.41
2022-12-17T20:29:30.226Z,-8.05
2022-12-17T20:31:58.375Z,-8.29
2022-12-17T20:34:26.416Z,-8.04
2022-12-17T20:36:54.728Z,-8.23
2022-12-17T20:39:27.098Z,-8.11
2022-12-17T20:41:55.984Z,-8.03
2022-12-17T20:44:25.174Z,-8.21
2022-12-17T20:46:53.079Z,-8.20
2022-12-17T20:49:20.950Z,-8.44
2022-12-17T20:51:48.921Z,-8.08
2022-12-17T20:54:16.729Z,-8.27
2022-12-17T20:56:44.625Z,-8.34
2022-12-17T20:59:15.935Z,-8.33
2022-12-17T21:01:46.748Z,-8.10
2022-12-17T21:04:20.196Z,-8.12
2022-12-17T21:06:51.627Z,-8.16
2022-12-17T21:09:20.828Z,-8.59
2022-12-17T21:11:49.130Z,-8.61
2022-12-17T21:14:19.984Z,-8.63
2022-12-17T21:16:49.725Z,-8.32
2022-12-17T21:19:20.093Z,-8.36
2022-12-17T21:21:48.712Z,-8.77
2022-12-17T21:24:16.790Z,-8.44
2022-12-17T21:26:45.751Z,-8.57
2022-12-17T21:29:14.341Z,-8.53
2022-12-17T21:31:44.691Z,-8.60
2022-12-17T21:34:16.110Z,-8.62
2022-12-17T21:36:44.512Z,-8.82
2022-12-17T21:39:13.980Z,-9.02
2022-12-17T21:41:44.520Z,-8.91
2022-12-17T21:44:14.146Z,-8.75
2022-12-17T21:46:47.988Z,-9.15
2022-12-17T21:49:19.267Z,-8.81
2022-12-17T21:51:47.281Z,-8.84
2022-12-17T21:54:19.271Z,-8.89
2022-12-17T21:56:48.814Z,-9.26
2022-12-17T21:59:17.262Z,-8.95
2022-12-17T22:01:45.301Z,-8.95
2022-12-17T22:04:13.246Z,-8.99
2022-12-17T22:06:48.361Z,-9.02
2022-12-17T22:09:33.124Z,-9.02
2022-12-17T22:12:27.139Z,-8.93
2022-12-17T22:14:54.915Z,-8.94
2022-12-17T22:17:23.124Z,-8.96
2022-12-17T22:19:51.205Z,-8.98
2022-12-17T22:22:20.310Z,-9.04
2022-12-17T22:24:48.151Z,-9.21
2022-12-17T22:27:20.500Z,-9.07
2022-12-17T22:30:06.112Z,-9.13
2022-12-17T22:32:47.886Z,-9.19
2022-12-17T22:36:09.246Z,-9.23
2022-12-17T22:41:29.022Z,-9.26
2022-12-17T22:44:42.209Z,-9.48
2022-12-17T22:44:49.373Z,-9.30
2022-12-17T22:46:30.782Z,-9.51
2022-12-17T22:48:59.683Z,-9.37
2022-12-17T22:51:32.848Z,-9.38
2022-12-17T22:54:05.501Z,-9.40
2022-12-17T22:57:34.648Z,-9.38
2022-12-17T22:59:22.775Z,-9.39
2022-12-17T23:01:50.645Z,-9.38
2022-12-17T23:04:18.519Z,-9.42
2022-12-17T23:06:46.801Z,-9.44
2022-12-17T23:09:18.944Z,-9.40
2022-12-17T23:11:47.300Z,-9.40
2022-12-17T23:14:15.293Z,-9.35
2022-12-17T23:16:43.000Z,-9.35
2022-12-17T23:19:11.678Z,-9.51
2022-12-17T23:21:39.477Z,-9.79
2022-12-17T23:24:08.015Z,-9.77
2022-12-17T23:26:38.001Z,-9.33
2022-12-17T23:29:08.380Z,-9.33
2022-12-17T23:31:40.045Z,-9.35
2022-12-17T23:34:08.673Z,-9.48
2022-12-17T23:36:37.017Z,-9.54
2022-12-17T23:39:05.646Z,-9.48
2022-12-17T23:41:33.876Z,-9.34
2022-12-17T23:44:02.981Z,-9.34
2022-12-17T23:46:31.549Z,-9.66
2022-12-17T23:48:59.531Z,-9.49
2022-12-17T23:51:28.066Z,-9.31
2022-12-17T23:53:56.094Z,-9.27
2022-12-17T23:56:26.465Z,-9.23
2022-12-17T23:58:56.514Z,-9.20
